createdAt,value
2022-09-28T00:00:33.470Z,12.10
2022-09-28T00:05:37.907Z,12.10
2022-09-28T00:10:43.317Z,12.10
2022-09-28T00:15:46.410Z,12.10
2022-09-28T00:21:00.186Z,12.10
2022-09-28T00:26:04.295Z,12.10
2022-09-28T00:31:07.429Z,12.00
2022-09-28T00:36:11.971Z,12.00
2022-09-28T00:41:15.559Z,11.90
2022-09-28T00:46:21.072Z,11.80
2022-09-28T00:51:27.824Z,11.80
2022-09-28T00:56:34.447Z,11.80
2022-09-28T01:01:38.956Z,11.90
2022-09-28T01:06:46.469Z,11.90
2022-09-28T01:11:49.528Z,11.90
2022-09-28T01:17:01.478Z,12.00
2022-09-28T01:22:21.558Z,12.00
2022-09-28T01:27:30.868Z,12.10
2022-09-28T01:32:45.569Z,12.10
2022-09-28T01:37:54.002Z,12.20
2022-09-28T01:43:04.149Z,12.30
2022-09-28T01:48:09.637Z,12.40
2022-09-28T01:53:18.658Z,12.40
2022-09-28T01:58:30.066Z,12.50
2022-09-28T02:03:37.911Z,12.50
2022-09-28T02:08:46.994Z,12.60
2022-09-28T02:13:54.667Z,12.70
2022-09-28T02:18:58.454Z,12.70
2022-09-28T02:24:05.549Z,12.80
2022-09-28T02:29:10.105Z,12.80
2022-09-28T02:34:13.242Z,12.80
2022-09-28T02:39:18.065Z,12.90
2022-09-28T02:44:39.428Z,12.90
2022-09-28T02:49:48.100Z,13.00
2022-09-28T02:55:18.451Z,13.00
2022-09-28T03:00:25.176Z,13.00
2022-09-28T03:05:38.313Z,13.00
2022-09-28T03:10:47.780Z,13.10
2022-09-28T03:15:52.232Z,13.00
2022-09-28T03:20:55.320Z,13.10
2022-09-28T03:25:58.425Z,13.00
2022-09-28T03:31:03.012Z,13.00
2022-09-28T03:36:08.674Z,13.00
2022-09-28T03:41:11.986Z,13.00
2022-09-28T03:46:16.806Z,12.90
2022-09-28T03:51:19.998Z,12.80
2022-09-28T03:56:23.097Z,12.70
2022-09-28T04:01:27.580Z,12.70
2022-09-28T04:06:30.767Z,12.60
2022-09-28T04:11:47.611Z,12.50
2022-09-28T04:16:58.524Z,12.50
2022-09-28T04:22:02.351Z,12.40
2022-09-28T04:27:22.770Z,12.40
2022-09-28T04:32:27.337Z,12.40
2022-09-28T04:37:31.283Z,12.40
2022-09-28T04:42:34.482Z,12.40
2022-09-28T04:47:38.945Z,12.40
2022-09-28T04:52:42.104Z,12.30
2022-09-28T04:57:45.193Z,12.30
2022-09-28T05:02:49.634Z,12.30
2022-09-28T05:07:52.689Z,12.30
2022-09-28T05:12:55.737Z,12.30
2022-09-28T05:18:00.236Z,12.30
2022-09-28T05:23:03.342Z,12.20
2022-09-28T05:28:06.914Z,12.20
2022-09-28T05:33:11.339Z,12.20
2022-09-28T05:38:14.489Z,12.30
2022-09-28T05:43:17.841Z,12.30
2022-09-28T05:48:22.308Z,12.30
2022-09-28T05:53:26.183Z,12.30
2022-09-28T05:58:29.389Z,12.40
2022-09-28T06:03:33.872Z,12.40
2022-09-28T06:08:37.046Z,12.40
2022-09-28T06:13:40.418Z,12.50
2022-09-28T06:18:44.891Z,12.50
2022-09-28T06:23:49.384Z,12.50
2022-09-28T06:28:52.716Z,12.60
2022-09-28T06:33:57.471Z,12.60
2022-09-28T06:39:00.647Z,12.60
2022-09-28T06:44:06.240Z,12.60
2022-09-28T06:49:11.294Z,12.60
2022-09-28T06:54:14.813Z,12.60
2022-09-28T06:59:18.475Z,12.60
2022-09-28T07:04:22.979Z,12.60
2022-09-28T07:09:32.882Z,12.60
2022-09-28T07:14:47.494Z,12.70
2022-09-28T07:19:53.297Z,12.70
2022-09-28T07:24:57.636Z,12.70
2022-09-28T07:30:00.819Z,12.70
2022-09-28T07:35:08.044Z,12.80
2022-09-28T07:40:29.470Z,12.80
2022-09-28T07:45:36.641Z,12.80
2022-09-28T07:50:41.413Z,12.90
2022-09-28T07:55:44.564Z,12.90
2022-09-28T08:00:48.679Z,12.90
2022-09-28T08:05:53.294Z,13.00
2022-09-28T08:16:08.355Z,13.00
2022-09-28T08:21:30.431Z,13.10
2022-09-28T08:26:33.692Z,13.10
2022-09-28T08:31:37.013Z,13.10
2022-09-28T08:36:41.440Z,13.10
2022-09-28T08:41:50.604Z,13.10
2022-09-28T08:46:59.728Z,13.10
2022-09-28T08:52:10.828Z,13.20
2022-09-28T08:57:17.407Z,13.20
2022-09-28T09:02:25.517Z,13.20
2022-09-28T09:07:58.854Z,13.20
2022-09-28T09:13:12.463Z,13.20
2022-09-28T09:18:29.146Z,13.20
2022-09-28T09:23:38.478Z,13.20
2022-09-28T09:29:03.220Z,13.20
2022-09-28T09:34:23.865Z,13.20
2022-09-28T09:39:42.112Z,13.20
2022-09-28T09:45:05.632Z,13.30
2022-09-28T09:50:16.248Z,13.30
2022-09-28T09:55:29.982Z,13.40
2022-09-28T10:00:34.904Z,13.50
2022-09-28T10:05:38.922Z,13.60
2022-09-28T10:10:51.378Z,13.70
2022-09-28T10:15:55.500Z,13.80
2022-09-28T10:20:58.697Z,13.80
2022-09-28T10:26:06.286Z,13.90
2022-09-28T10:31:35.294Z,13.90
2022-09-28T10:36:50.874Z,14.00
2022-09-28T10:41:56.061Z,14.10
2022-09-28T10:47:02.209Z,14.20
2022-09-28T10:52:08.610Z,14.20
2022-09-28T10:57:29.527Z,14.20
2022-09-28T11:02:36.223Z,14.20
2022-09-28T11:07:47.161Z,14.20
2022-09-28T11:12:52.760Z,14.30
2022-09-28T11:17:56.593Z,14.40
2022-09-28T11:23:01.363Z,14.40
2022-09-28T11:28:06.315Z,14.40
2022-09-28T11:33:15.026Z,14.40
2022-09-28T11:38:34.095Z,14.40
2022-09-28T11:43:56.164Z,14.40
2022-09-28T11:49:04.193Z,14.40
2022-09-28T11:54:15.530Z,14.30
2022-09-28T11:59:26.748Z,14.40
2022-09-28T12:04:36.997Z,14.40
2022-09-28T12:09:46.813Z,14.40
2022-09-28T12:14:57.565Z,14.50
2022-09-28T12:20:06.588Z,14.50
2022-09-28T12:25:15.723Z,14.50
2022-09-28T12:30:21.569Z,14.50
2022-09-28T12:35:37.105Z,14.50
2022-09-28T12:40:51.422Z,14.50
2022-09-28T12:46:22.864Z,14.50
2022-09-28T12:51:43.354Z,14.50
2022-09-28T12:56:56.893Z,14.50
2022-09-28T13:02:29.511Z,14.60
2022-09-28T13:07:45.178Z,14.60
2022-09-28T13:12:59.901Z,14.60
2022-09-28T13:18:16.880Z,14.50
2022-09-28T13:23:23.606Z,14.50
2022-09-28T13:28:28.764Z,14.60
2022-09-28T13:33:36.930Z,14.60
2022-09-28T13:38:50.897Z,14.70
2022-09-28T13:44:31.831Z,14.60
2022-09-28T13:49:46.634Z,14.60
2022-09-28T13:55:04.744Z,14.60
2022-09-28T14:00:18.688Z,14.70
2022-09-28T14:05:47.391Z,14.70
2022-09-28T14:10:52.187Z,14.80
2022-09-28T14:16:15.419Z,14.80
2022-09-28T14:22:04.180Z,14.90
2022-09-28T14:27:33.690Z,14.90
2022-09-28T14:32:38.327Z,15.00
2022-09-28T14:38:01.294Z,15.10
2022-09-28T14:43:24.759Z,15.20
2022-09-28T14:48:44.964Z,15.20
2022-09-28T14:53:51.695Z,15.20
2022-09-28T14:58:58.377Z,15.30
2022-09-28T15:04:05.620Z,15.30
2022-09-28T15:09:31.452Z,15.30
2022-09-28T15:14:42.309Z,15.30
2022-09-28T15:19:52.863Z,15.30
2022-09-28T15:25:02.456Z,15.40
2022-09-28T15:30:26.168Z,15.40
2022-09-28T15:35:30.121Z,15.30
2022-09-28T15:40:39.144Z,15.30
2022-09-28T15:45:44.156Z,15.30
2022-09-28T15:51:06.198Z,15.30
2022-09-28T15:56:11.845Z,15.20
2022-09-28T16:01:36.017Z,15.20
2022-09-28T16:06:41.554Z,15.20
2022-09-28T16:11:48.596Z,15.10
2022-09-28T16:16:53.267Z,15.10
2022-09-28T16:21:57.856Z,15.00
2022-09-28T16:27:06.076Z,14.90
2022-09-28T16:32:37.638Z,14.90
2022-09-28T16:37:42.626Z,14.70
2022-09-28T16:42:49.338Z,14.60
2022-09-28T16:47:53.547Z,14.60
2022-09-28T16:53:20.455Z,14.50
2022-09-28T16:58:25.181Z,14.50
2022-09-28T17:03:29.441Z,14.50
2022-09-28T17:08:32.987Z,14.40
2022-09-28T17:13:37.497Z,14.40
2022-09-28T17:18:40.769Z,14.30
2022-09-28T17:23:44.042Z,14.20
2022-09-28T17:28:48.824Z,14.10
2022-09-28T17:33:52.086Z,14.10
2022-09-28T17:38:55.165Z,14.10
2022-09-28T17:44:00.221Z,14.00
2022-09-28T17:49:06.340Z,14.10
2022-09-28T17:54:10.057Z,14.10
2022-09-28T17:59:17.372Z,14.10
2022-09-28T18:04:46.923Z,14.10
2022-09-28T18:09:43.784Z,14.10
2022-09-28T18:14:48.481Z,14.20
2022-09-28T18:19:51.592Z,14.20
2022-09-28T18:24:54.745Z,14.20
2022-09-28T18:29:59.299Z,14.20
2022-09-28T18:35:02.353Z,14.20
2022-09-28T18:40:06.086Z,14.20
2022-09-28T18:45:12.199Z,14.20
2022-09-28T18:50:15.493Z,14.10
2022-09-28T18:55:19.138Z,14.00
2022-09-28T19:00:23.891Z,13.90
2022-09-28T19:05:28.244Z,13.80
2022-09-28T19:10:31.345Z,13.70
2022-09-28T19:15:36.198Z,13.60
2022-09-28T19:20:39.380Z,13.60
2022-09-28T19:25:42.494Z,13.50
2022-09-28T19:30:46.991Z,13.50
2022-09-28T19:35:57.218Z,13.60
2022-09-28T19:41:01.163Z,13.60
2022-09-28T19:46:08.416Z,13.60
2022-09-28T19:51:11.919Z,13.60
2022-09-28T19:56:16.154Z,13.50
2022-09-28T20:01:21.127Z,13.50
2022-09-28T20:06:24.709Z,13.40
2022-09-28T20:11:29.989Z,13.40
2022-09-28T20:16:37.642Z,13.30
2022-09-28T20:21:40.765Z,13.30
2022-09-28T20:26:45.864Z,13.30
2022-09-28T20:31:51.329Z,13.20
2022-09-28T20:36:54.525Z,13.20
2022-09-28T20:41:57.704Z,13.20
2022-09-28T20:47:02.536Z,13.20
2022-09-28T20:52:05.741Z,13.10
2022-09-28T20:57:17.565Z,13.00
2022-09-28T21:02:22.417Z,13.00
2022-09-28T21:07:25.728Z,13.00
2022-09-28T21:12:28.786Z,13.00
2022-09-28T21:17:33.445Z,13.00
2022-09-28T21:22:36.506Z,13.00
2022-09-28T21:27:39.573Z,12.90
2022-09-28T21:32:43.984Z,13.00
2022-09-28T21:37:47.330Z,13.00
2022-09-28T21:42:50.419Z,13.10
2022-09-28T21:47:55.265Z,13.20
2022-09-28T21:52:59.097Z,13.20
2022-09-28T21:58:02.165Z,13.20
2022-09-28T22:03:06.839Z,13.30
2022-09-28T22:08:10.098Z,13.30
2022-09-28T22:13:13.228Z,13.30
2022-09-28T22:18:17.705Z,13.30
2022-09-28T22:23:22.938Z,13.30
2022-09-28T22:28:26.071Z,13.30
2022-09-28T22:33:30.568Z,13.20
2022-09-28T22:38:34.042Z,13.10
2022-09-28T22:43:37.148Z,13.00
2022-09-28T22:48:42.327Z,12.90
2022-09-28T22:53:45.683Z,12.90
2022-09-28T22:58:49.031Z,12.90
2022-09-28T23:03:55.216Z,12.90
2022-09-28T23:08:58.612Z,12.90
2022-09-28T23:14:01.768Z,12.90
2022-09-28T23:19:06.374Z,12.90
2022-09-28T23:24:11.982Z,13.00
2022-09-28T23:29:15.050Z,13.00
2022-09-28T23:34:19.667Z,13.00
2022-09-28T23:39:22.767Z,13.00
2022-09-28T23:44:26.555Z,12.90
2022-09-28T23:49:31.540Z,12.90
2022-09-28T23:54:34.776Z,12.90
2022-09-28T23:59:37.938Z,12.90
